Latest Weather Observations for Point Perpendicular

IDN60801

Issued at 11:02 pm EST Monday 31 August 2015 (issued every 30 minutes, with the page automatically refreshed every 10 minutes)

About weather observations | Map of weather stations | Latest weather observations for NSW | Other Formats
Station Details ID: 068151 Name: POINT PERPENDICULAR AWS Lat: -35.09 Lon: 150.80 Height: 85.0 m
Data from the previous 72 hours. | See also: Recent months at Point Perpendicular
Date/Time
EST
Temp
°C
App
Temp
°C
Dew
Point
Rel
Hum
%
Delta-T
°C
Wind Press
QNH
hPa
Press
MSL
hPa
Rain
since 9 am
mm
Dir
 
Spd
km/h
Gust
km/h
Spd
kts
Gust
kts
31/11:00pm 13.4 8.9 7.0 65 3.1 SSW 20 32 11 17 1014.8 1014.8 7.8
31/10:30pm 13.8 12.0 8.0 68 2.9 SW 7 11 4 6 1014.9 1014.9 7.8
31/10:00pm 12.9 11.1 9.4 79 1.8 SW 9 15 5 8 1015.5 1015.5 7.8
31/09:30pm 12.0 8.1 9.6 85 1.2 S 20 32 11 17 1015.3 1015.3 7.6
31/09:00pm 12.7 9.1 9.7 82 1.5 S 19 30 10 16 1015.3 1015.3 6.4
31/08:30pm 12.5 10.1 8.8 78 1.9 SSW 11 22 6 12 1015.3 1015.3 3.4
31/08:00pm 14.2 10.8 9.0 71 2.6 SSW 17 28 9 15 1014.9 1014.9 0.0
31/07:30pm 14.5 11.2 8.2 66 3.2 S 15 22 8 12 1014.8 1014.8 0.0
31/07:00pm 14.4 10.8 8.4 67 3.0 S 17 28 9 15 1014.7 1014.7 0.0
31/06:30pm 14.3 11.1 8.5 68 2.9 S 15 28 8 15 1014.5 1014.5 0.0
31/06:00pm 14.5 11.3 8.5 67 3.0 S 15 24 8 13 1014.4 1014.4 0.0
31/05:30pm 14.4 11.0 7.7 64 3.3 S 15 24 8 13 1014.2 1014.2 0.0
31/05:00pm 14.5 10.3 7.5 63 3.5 S 19 28 10 15 1014.0 1014.0 0.0
31/04:30pm 14.7 10.6 7.7 63 3.5 SSE 19 28 10 15 1013.8 1013.8 0.0
31/04:00pm 14.7 10.7 6.8 59 3.9 S 17 26 9 14 1013.8 1013.8 0.0
31/03:30pm 14.6 10.3 6.9 60 3.8 SSE 19 26 10 14 1014.0 1014.0 0.0
31/03:00pm 14.3 10.0 7.1 62 3.5 S 19 28 10 15 1014.2 1014.2 0.0
31/02:30pm 14.2 9.2 6.3 59 3.8 S 22 30 12 16 1014.6 1014.6 0.0
31/02:00pm 14.0 9.3 6.1 59 3.8 S 20 30 11 16 1014.8 1014.8 0.0
31/01:30pm 14.1 9.6 6.0 58 3.9 S 19 30 10 16 1015.0 1015.0 0.0
31/01:00pm 13.8 9.1 5.9 59 3.8 S 20 28 11 15 1015.3 1015.3 0.0
31/12:30pm 13.7 8.9 5.6 58 3.8 SSW 20 30 11 16 1015.5 1015.5 0.0
31/12:00pm 13.4 8.1 5.1 57 3.9 SSW 22 33 12 18 1015.8 1015.8 0.0
31/11:30am 13.3 8.4 4.2 54 4.2 SW 19 30 10 16 1016.2 1016.2 0.0
31/11:00am 13.1 8.0 4.3 55 4.0 SSW 20 32 11 17 1016.4 1016.4 0.0
31/10:30am 13.0 7.6 4.4 56 3.9 SSW 22 30 12 16 1016.8 1016.8 0.0
31/10:00am 12.8 7.8 3.5 53 4.2 SSW 19 30 10 16 1016.9 1016.9 0.0
31/09:30am 12.5 7.9 3.5 54 4.0 SW 17 26 9 14 1017.1 1017.1 0.0
31/09:00am 12.3 8.3 5.0 61 3.4 WSW 15 24 8 13 1017.4 1017.4 0.0
31/08:30am 11.7 8.1 5.1 64 3.0 WSW 13 20 7 11 1017.4 1017.4 0.0
31/08:00am 11.1 8.6 5.0 66 2.8 W 7 11 4 6 1017.4 1017.4 0.0
31/07:30am 10.7 7.9 5.0 68 2.6 WNW 9 17 5 9 1017.5 1017.5 0.0
31/07:00am 10.3 7.2 5.7 73 2.1 WNW 11 13 6 7 1017.4 1017.4 0.0
31/06:30am 10.3 7.6 5.7 73 2.1 WNW 9 11 5 6 1017.2 1017.2 0.0
31/06:00am 9.9 7.6 5.9 76 1.8 WNW 7 9 4 5 1016.9 1016.9 0.0
31/05:30am 9.9 7.6 5.5 74 2.0 WNW 7 11 4 6 1016.9 1016.9 0.0
31/05:00am 11.1 8.4 5.6 69 2.5 WNW 9 13 5 7 1016.9 1016.9 0.0
31/04:30am 11.7 8.8 4.7 62 3.2 SW 9 20 5 11 1016.8 1016.8 0.0
31/04:00am 11.7 8.5 5.1 64 3.0 SW 11 15 6 8 1016.9 1016.9 0.0
31/03:30am 12.0 8.5 5.6 65 3.0 SW 13 28 7 15 1016.9 1016.9 0.0
31/03:00am 12.1 8.5 4.8 61 3.3 SW 13 22 7 12 1017.1 1017.1 0.0
31/02:30am 12.2 7.7 4.4 59 3.6 SSW 17 28 9 15 1017.5 1017.5 0.0
31/02:00am 12.4 7.9 4.4 58 3.6 SSW 17 30 9 16 1018.0 1018.0 0.0
31/01:30am 12.2 8.7 5.6 64 3.1 SW 13 17 7 9 1018.5 1018.5 0.0
31/01:00am 12.8 9.9 6.4 65 3.1 SSW 11 28 6 15 1018.1 1018.1 0.0
31/12:30am 13.0 8.9 6.1 63 3.3 SSW 17 30 9 16 1018.1 1018.1 0.0
31/12:00am 12.8 8.6 5.7 62 3.3 SW 17 26 9 14 1018.5 1018.5 0.0
 
Date/Time
EST
Temp
°C
App
Temp
°C
Dew
Point
Rel
Hum
%
Delta-T
°C
Wind Press
QNH
hPa
Press
MSL
hPa
Rain
since 9 am
mm
Dir
 
Spd
km/h
Gust
km/h
Spd
kts
Gust
kts
30/11:30pm 13.1 8.3 5.5 60 3.6 SSW 20 32 11 17 1018.4 1018.4 0.0
30/11:00pm 13.2 6.7 4.9 57 3.8 SSW 28 41 15 22 1018.1 1018.1 0.0
30/10:30pm 13.5 7.6 5.9 60 3.6 SSW 26 43 14 23 1017.9 1017.9 0.0
30/10:00pm 13.9 7.8 6.5 61 3.6 SSW 28 41 15 22 1018.1 1018.1 0.0
30/09:30pm 14.0 9.0 6.4 60 3.7 SSW 22 35 12 19 1018.2 1018.2 0.0
30/09:00pm 14.2 8.9 7.0 62 3.5 SSW 24 41 13 22 1018.3 1018.3 0.0
30/08:30pm 14.4 9.0 6.5 59 3.8 SSW 24 35 13 19 1018.1 1018.1 0.0
30/08:00pm 14.6 9.4 5.7 55 4.2 SSW 22 33 12 18 1018.1 1018.1 0.0
30/07:30pm 14.4 9.2 7.2 62 3.5 SSW 24 33 13 18 1017.9 1017.9 0.0
30/07:00pm 14.4 9.1 6.7 60 3.7 SSW 24 33 13 18 1017.6 1017.6 0.0
30/06:30pm 14.5 9.3 7.1 61 3.6 SSW 24 41 13 22 1017.6 1017.6 0.0
30/06:00pm 14.6 9.3 6.7 59 3.8 SSW 24 41 13 22 1017.4 1017.4 0.0
30/05:30pm 14.5 10.0 6.8 60 3.8 SSW 20 32 11 17 1017.2 1017.2 0.0
30/05:00pm 14.3 9.6 7.6 64 3.3 S 22 35 12 19 1017.2 1017.2 0.0
30/04:30pm 14.4 9.6 7.2 62 3.5 SSW 22 33 12 18 1017.0 1017.0 0.0
30/04:00pm 14.5 9.6 7.1 61 3.6 S 22 41 12 22 1017.1 1017.1 0.0
30/03:30pm 14.7 10.2 7.0 60 3.8 SSW 20 32 11 17 1017.4 1017.4 0.0
30/03:00pm 14.1 9.1 6.5 60 3.7 SSW 22 32 12 17 1017.5 1017.5 0.0
30/02:30pm 14.2 8.8 6.3 59 3.8 SSW 24 33 13 18 1018.0 1018.0 0.0
30/02:00pm 14.0 9.3 5.9 58 3.9 SW 20 30 11 16 1018.1 1018.1 0.0
30/01:30pm 14.1 9.4 6.0 58 3.9 SSW 20 32 11 17 1018.3 1018.3 0.0
30/01:00pm 13.8 9.1 6.2 60 3.6 SSW 20 39 11 21 1018.4 1018.4 0.0
30/12:30pm 13.4 8.6 5.8 60 3.6 SSW 20 32 11 17 1018.9 1018.9 0.0
30/12:00pm 13.2 8.2 4.6 56 4.0 SSW 20 33 11 18 1019.2 1019.2 0.0
30/11:30am 13.2 7.4 4.6 56 4.0 SSW 24 39 13 21 1019.8 1019.8 0.0
30/11:00am 13.2 7.9 4.9 57 3.8 SSW 22 33 12 18 1019.9 1019.9 0.0
30/10:30am 13.1 7.4 4.8 57 3.8 SSW 24 32 13 17 1019.8 1019.8 0.0
30/10:00am 12.7 9.2 5.4 61 3.4 SW 13 22 7 12 1020.1 1020.1 0.0
30/09:30am 11.9 8.4 5.3 64 3.1 WSW 13 20 7 11 1020.3 1020.3 0.0
30/09:00am 11.1 8.1 6.0 71 2.4 W 11 17 6 9 1020.2 1020.2 0.0
30/08:30am 10.1 7.1 5.9 75 1.9 WNW 11 20 6 11 1020.2 1020.2 0.0
30/08:00am 9.3 6.6 5.5 77 1.7 W 9 13 5 7 1019.9 1019.9 0.0
30/07:30am 9.0 5.8 5.2 77 1.7 W 11 15 6 8 1019.8 1019.8 0.0
30/07:00am 8.8 6.0 5.2 78 1.6 WNW 9 13 5 7 1019.6 1019.6 0.0
30/06:30am 8.6 6.1 5.0 78 1.6 W 7 11 4 6 1019.5 1019.5 0.0
30/06:00am 8.7 6.2 4.5 75 1.9 W 7 11 4 6 1019.3 1019.3 0.0
30/05:30am 9.0 6.0 4.0 71 2.2 W 9 13 5 7 1019.2 1019.2 0.0
30/05:00am 9.1 6.1 4.1 71 2.2 WNW 9 13 5 7 1019.3 1019.3 0.0
30/04:30am 9.1 6.1 4.1 71 2.2 W 9 11 5 6 1019.3 1019.3 0.0
30/04:00am 8.4 5.1 4.8 78 1.6 WNW 11 13 6 7 1019.2 1019.2 0.0
30/03:30am 8.2 4.5 4.4 77 1.7 WNW 13 15 7 8 1019.4 1019.4 0.0
30/03:00am 8.5 4.5 4.7 77 1.7 WNW 15 17 8 9 1019.5 1019.5 0.0
30/02:30am 8.2 4.5 4.2 76 1.8 WNW 13 15 7 8 1019.7 1019.7 0.0
30/02:00am 8.6 5.3 4.6 76 1.8 WNW 11 13 6 7 1019.9 1019.9 0.0
30/01:30am 8.5 4.8 4.3 75 1.8 WNW 13 15 7 8 1020.2 1020.2 0.0
30/01:00am 9.0 5.7 4.6 74 2.0 WNW 11 15 6 8 1020.4 1020.4 0.0
30/12:30am 9.1 5.3 4.1 71 2.2 WNW 13 15 7 8 1020.4 1020.4 0.0
30/12:00am 9.5 6.1 4.1 69 2.4 WNW 11 15 6 8 1020.4 1020.4 0.0
 
Date/Time
EST
Temp
°C
App
Temp
°C
Dew
Point
Rel
Hum
%
Delta-T
°C
Wind Press
QNH
hPa
Press
MSL
hPa
Rain
since 9 am
mm
Dir
 
Spd
km/h
Gust
km/h
Spd
kts
Gust
kts
29/11:30pm 9.9 6.1 4.1 67 2.6 WNW 13 17 7 9 1020.3 1020.3 0.0
29/11:00pm 9.9 6.1 3.9 66 2.6 NW 13 15 7 8 1020.3 1020.3 0.0
29/10:30pm 10.1 6.3 4.0 66 2.7 NW 13 15 7 8 1020.2 1020.2 0.0
29/10:00pm 10.6 7.1 3.6 62 3.1 WNW 11 13 6 7 1020.2 1020.2 0.0
29/09:30pm 11.7 8.5 3.2 56 3.8 NW 9 13 5 7 1020.2 1020.2 0.0
29/09:00pm 12.4 8.9 3.4 54 4.0 W 11 15 6 8 1020.2 1020.2 0.0
29/08:30pm 12.8 8.9 3.5 53 4.2 W 13 20 7 11 1020.0 1020.0 0.0
29/08:00pm 13.9 11.5 7.2 64 3.3 SSW 9 13 5 7 1019.8 1019.8 0.0
29/07:30pm 13.6 11.2 7.2 65 3.1 S 9 15 5 8 1019.5 1019.5 0.0
29/07:00pm 13.4 10.8 7.6 68 2.8 S 11 15 6 8 1019.4 1019.4 0.0
29/06:30pm 13.7 11.4 7.5 66 3.1 SSW 9 15 5 8 1019.1 1019.1 0.0
29/06:00pm 14.4 11.5 6.3 58 3.9 W 11 15 6 8 1018.7 1018.7 0.0
29/05:30pm 14.0 12.6 5.6 57 4.0 NW 2 7 1 4 1018.4 1018.4 0.0
29/05:00pm 15.0 13.6 5.5 53 4.5 E 2 6 1 3 1017.9 1017.9 0.0
29/04:30pm 16.1 14.6 5.1 48 5.2 E 2 6 1 3 1017.8 1017.8 0.0
29/04:00pm 15.6 13.7 7.4 58 4.1 ESE 7 15 4 8 1017.7 1017.7 0.0
29/03:30pm 15.1 12.7 6.9 58 4.0 SE 9 15 5 8 1017.8 1017.8 0.0
29/03:00pm 15.4 11.9 7.2 58 4.1 WSW 15 22 8 12 1017.8 1017.8 0.0
29/02:30pm 16.2 11.8 2.9 41 6.1 W 15 24 8 13 1017.9 1017.9 0.0
29/02:00pm 16.0 11.3 3.4 43 5.8 W 17 28 9 15 1018.2 1018.2 0.0
29/01:30pm 15.6 11.6 3.1 43 5.7 WSW 13 26 7 14 1018.5 1018.5 0.0
29/01:00pm 14.8 12.5 7.6 62 3.6 SSW 9 20 5 11 1019.0 1019.0 0.0
29/12:30pm 14.6 10.4 5.9 56 4.2 WSW 17 28 9 15 1019.5 1019.5 0.0
29/12:00pm 14.2 11.5 7.3 63 3.4 SW 11 17 6 9 1020.1 1020.1 0.0
29/11:30am 13.6 11.1 6.7 63 3.3 SSW 9 15 5 8 1020.4 1020.4 0.0
29/11:00am 13.7 10.0 6.1 60 3.6 SW 15 22 8 12 1021.0 1021.0 0.0
29/10:30am 13.4 9.9 5.3 58 3.8 SW 13 20 7 11 1021.2 1021.2 0.0
29/10:00am 12.9 9.8 5.6 61 3.4 W 11 20 6 11 1021.2 1021.2 0.0
29/09:30am 12.7 9.4 6.5 66 3.0 W 13 20 7 11 1021.5 1021.5 0.0
29/09:00am 12.4 8.8 6.7 68 2.7 NW 15 22 8 12 1021.6 1021.6 15.6
29/08:30am 12.1 9.0 7.2 72 2.4 NW 13 20 7 11 1021.7 1021.7 15.6
29/08:00am 11.7 9.6 6.8 72 2.3 WNW 7 11 4 6 1022.0 1022.0 15.6
29/07:30am 10.8 7.7 7.1 78 1.8 WNW 13 22 7 12 1022.0 1022.0 15.6
29/07:00am 10.3 8.3 8.7 90 0.8 W 9 13 5 7 1021.8 1021.8 15.6
29/06:30am 9.9 7.6 9.0 94 0.4 WNW 11 15 6 8 1021.7 1021.7 15.6
29/06:00am 9.8 7.5 9.0 95 0.4 NW 11 13 6 7 1021.4 1021.4 15.6
29/05:30am 9.5 7.5 8.7 95 0.4 NW 9 11 5 6 1021.2 1021.2 15.6
29/05:00am 10.2 9.0 9.6 96 0.3 NW 6 9 3 5 1021.3 1021.3 15.6
29/04:30am 10.7 9.1 10.1 96 0.3 WNW 9 11 5 6 1021.3 1021.3 15.6
29/04:00am 10.7 9.4 10.1 96 0.3 WNW 7 9 4 5 1021.2 1021.2 15.6
29/03:30am 11.2 10.0 10.4 95 0.4 WNW 7 9 4 5 1021.4 1021.4 15.6
29/03:00am 11.6 10.5 10.7 94 0.5 WNW 7 11 4 6 1021.7 1021.7 15.6
29/02:30am 11.5 10.6 10.6 94 0.5 SW 6 9 3 5 1022.0 1022.0 15.6
29/02:00am 11.7 10.8 10.8 94 0.5 SW 6 9 3 5 1022.2 1022.2 15.6
29/01:30am 11.7 10.7 10.9 95 0.4 SSW 7 11 4 6 1022.4 1022.4 15.6
29/01:00am 11.7 10.7 11.1 96 0.3 SW 7 11 4 6 1022.5 1022.5 15.6
29/12:30am 11.6 10.5 10.8 95 0.4 SSW 7 11 4 6 1022.4 1022.4 15.6
29/12:00am 11.5 10.0 10.7 95 0.4 S 9 13 5 7 1022.4 1022.4 15.6
 
Date/Time
EST
Temp
°C
App
Temp
°C
Dew
Point
Rel
Hum
%
Delta-T
°C
Wind Press
QNH
hPa
Press
MSL
hPa
Rain
since 9 am
mm
Dir
 
Spd
km/h
Gust
km/h
Spd
kts
Gust
kts
28/11:30pm 11.9 10.6 11.1 95 0.4 SSW 9 13 5 7 1022.5 1022.5 15.6

Other Formats:

Comma delimited format used in spreadsheet applications
http://www.bom.gov.au/fwo/IDN60801/IDN60801.95940.axf

JavaScript Object Notation format (JSON) in row-major order
http://www.bom.gov.au/fwo/IDN60801/IDN60801.95940.json